Pemberton, NJ

2:20 PM EDT on May 06, 2015 (GMT -0400)
South Jersey Regional | | Change Station
CLOSE
Current Station
Airport
Location: Mount Holly,
Elevation: 52 ft
Nearby Weather Stations

Elev 52 ft 39.94 °N, 74.84 °W | Updated 26 minutes ago

Mostly Cloudy
Mostly Cloudy
72 °F
Feels Like 72 °F
N
14
Wind Variable Wind from East

Today
High -- | Low -- °F
--% Chance of Precip.
Yesterday
High -- | Low -- °F
Precip. -- in
5:53 AM 7:58 PM
Waning Gibbous, 93% visible
Pressure 30.22 in
Visibility 10.0 miles
Clouds Scattered Clouds 7500 ft
Mostly Cloudy 10000 ft
Dew Point 45 °F
Humidity 38%
Rainfall 0.02 in
Snow Depth Not available.
UV 6 out of 12
Pollen 7.70 out of 12
Air Quality Not available.
Flu Activity Local Activity
METAR KVAY 061754Z AUTO 10012KT 10SM SCT075 BKN100 22/07 A3022 RMK AO2 PRESFR SLP232 60002 T02220072 10233 20161 58017

More Conditions Fewer Conditions

Pressure 30.22 in
Visibility 10.0 miles
Clouds Scattered Clouds 7500 ft
Mostly Cloudy 10000 ft
Dew Point 45 °F
Humidity 38%
Rainfall 0.02 in
Snow Depth Not available.
UV 6 out of 12
Pollen 7.70 out of 12
Air Quality Not available.
Flu Activity Local Activity
METAR KVAY 061754Z AUTO 10012KT 10SM SCT075 BKN100 22/07 A3022 RMK AO2 PRESFR SLP232 60002 T02220072 10233 20161 58017

More Conditions Fewer Conditions

Nowcast | as of 1:42 PM EDT on May 6, 2015

Between now and 400 PM, scattered light rain showers will continue to affect much of New Jersey and the adjacent coastal waters. Additional rainfall should be less than a tenth of an inch.

×

10-Day Weather Forecast

Almanac

Astronomy

May. 06, 2015 Rise Set
Actual Time
Civil Twilight
Nautical Twilight
Astronomical Twilight
Moon
Length of Visible Light
Length of Day
Tomorrow will be .
, % of the Moon is Illuminated

Today's Extremes

State Highs State Lows

Community

WunderPhotos

Upload Photos

1,818,968 photos uploaded!

WunderBlogs® & News

Nearby

Air Quality

  Air Quality AQ Index Pollutant
Not available.

Snow Depth

Station Depth Elevation

Earthquake Activity

City Distance Mag. Time & Date
Minimum magnitude displayed is 2.5.

Coastal Water Temperatures

Place Temperature

Stations

Nearby Weather Stations

Station Location Temp. Windchill Dew Point Humidity Wind Precip. Elev Updated Type